sensor_id;sensor_type;location;lat;lon;timestamp;pressure;altitude;pressure_sealevel;temperature;humidity
65173;BME280;69059;52.218;5.172;2023-06-19T00:00:21;100573.38;;;22.03;100.00
65173;BME280;69059;52.218;5.172;2023-06-19T00:02:49;100607.16;;;22.08;100.00
65173;BME280;69059;52.218;5.172;2023-06-19T00:05:17;100602.44;;;22.25;100.00
65173;BME280;69059;52.218;5.172;2023-06-19T00:07:46;100599.19;;;22.13;100.00
65173;BME280;69059;52.218;5.172;2023-06-19T00:10:14;100588.78;;;22.06;100.00
65173;BME280;69059;52.218;5.172;2023-06-19T00:12:42;100597.31;;;22.03;100.00
65173;BME280;69059;52.218;5.172;2023-06-19T00:15:10;100587.66;;;21.97;100.00
65173;BME280;69059;52.218;5.172;2023-06-19T00:17:38;100599.69;;;22.00;100.00
65173;BME280;69059;52.218;5.172;2023-06-19T00:20:07;100604.75;;;22.01;100.00
65173;BME280;69059;52.218;5.172;2023-06-19T00:22:35;100609.25;;;22.06;100.00
65173;BME280;69059;52.218;5.172;2023-06-19T00:25:05;100601.88;;;22.13;100.00
65173;BME280;69059;52.218;5.172;2023-06-19T00:27:33;100607.72;;;22.15;100.00
65173;BME280;69059;52.218;5.172;2023-06-19T00:30:01;100601.59;;;22.14;100.00
65173;BME280;69059;52.218;5.172;2023-06-19T00:32:29;100597.59;;;22.12;100.00
65173;BME280;69059;52.218;5.172;2023-06-19T00:34:57;100597.59;;;22.17;100.00
65173;BME280;69059;52.218;5.172;2023-06-19T00:37:27;100590.44;;;22.12;100.00
65173;BME280;69059;52.218;5.172;2023-06-19T00:39:58;100590.72;;;22.16;100.00
65173;BME280;69059;52.218;5.172;2023-06-19T00:42:27;100594.44;;;22.15;100.00
65173;BME280;69059;52.218;5.172;2023-06-19T00:44:55;100594.94;;;22.17;100.00
65173;BME280;69059;52.218;5.172;2023-06-19T00:47:23;100593.06;;;22.02;100.00
65173;BME280;69059;52.218;5.172;2023-06-19T00:49:52;100602.09;;;22.06;100.00
65173;BME280;69059;52.218;5.172;2023-06-19T00:52:20;100585.78;;;21.93;100.00
65173;BME280;69059;52.218;5.172;2023-06-19T00:54:47;100585.19;;;21.80;100.00
65173;BME280;69059;52.218;5.172;2023-06-19T00:57:15;100579.94;;;21.96;100.00
65173;BME280;69059;52.218;5.172;2023-06-19T00:59:45;100585.53;;;21.94;100.00
65173;BME280;69059;52.218;5.172;2023-06-19T01:02:13;100581.50;;;21.87;100.00
65173;BME280;69059;52.218;5.172;2023-06-19T01:04:41;100573.50;;;21.76;100.00
65173;BME280;69059;52.218;5.172;2023-06-19T01:07:11;100580.72;;;21.86;100.00
65173;BME280;69059;52.218;5.172;2023-06-19T01:09:46;100590.41;;;21.60;100.00
65173;BME280;69059;52.218;5.172;2023-06-19T01:12:19;100591.50;;;21.64;100.00
65173;BME280;69059;52.218;5.172;2023-06-19T01:14:53;100594.00;;;21.44;100.00
65173;BME280;69059;52.218;5.172;2023-06-19T01:17:22;100583.31;;;21.34;100.00
65173;BME280;69059;52.218;5.172;2023-06-19T01:19:50;100586.97;;;21.28;100.00
65173;BME280;69059;52.218;5.172;2023-06-19T01:22:27;100590.59;;;21.17;100.00
65173;BME280;69059;52.218;5.172;2023-06-19T01:24:54;100584.75;;;21.15;100.00
65173;BME280;69059;52.218;5.172;2023-06-19T01:27:23;100587.09;;;21.11;100.00
65173;BME280;69059;52.218;5.172;2023-06-19T01:29:52;100588.75;;;20.85;100.00
65173;BME280;69059;52.218;5.172;2023-06-19T01:32:26;100585.94;;;20.70;100.00
65173;BME280;69059;52.218;5.172;2023-06-19T01:34:57;100573.31;;;20.55;100.00
65173;BME280;69059;52.218;5.172;2023-06-19T01:37:28;100575.78;;;20.62;100.00
65173;BME280;69059;52.218;5.172;2023-06-19T01:40:02;100568.22;;;20.49;100.00
65173;BME280;69059;52.218;5.172;2023-06-19T01:42:32;100558.41;;;20.49;100.00
65173;BME280;69059;52.218;5.172;2023-06-19T01:45:02;100544.78;;;20.41;100.00
65173;BME280;69059;52.218;5.172;2023-06-19T01:47:30;100545.84;;;20.39;100.00
65173;BME280;69059;52.218;5.172;2023-06-19T01:49:58;100527.72;;;20.31;100.00
65173;BME280;69059;52.218;5.172;2023-06-19T01:52:26;100542.75;;;20.48;100.00
65173;BME280;69059;52.218;5.172;2023-06-19T01:54:55;100537.47;;;20.48;100.00
65173;BME280;69059;52.218;5.172;2023-06-19T01:57:23;100526.50;;;20.39;100.00
65173;BME280;69059;52.218;5.172;2023-06-19T01:59:51;100529.53;;;20.53;100.00
65173;BME280;69059;52.218;5.172;2023-06-19T02:02:18;100531.34;;;20.47;100.00
65173;BME280;69059;52.218;5.172;2023-06-19T02:04:46;100534.31;;;20.51;100.00
65173;BME280;69059;52.218;5.172;2023-06-19T02:07:14;100519.19;;;20.51;100.00
65173;BME280;69059;52.218;5.172;2023-06-19T02:09:41;100516.97;;;20.43;100.00
65173;BME280;69059;52.218;5.172;2023-06-19T02:12:11;100516.78;;;20.50;100.00
65173;BME280;69059;52.218;5.172;2023-06-19T02:14:38;100503.94;;;20.36;100.00
65173;BME280;69059;52.218;5.172;2023-06-19T02:17:06;100503.97;;;20.42;100.00
65173;BME280;69059;52.218;5.172;2023-06-19T02:19:34;100496.03;;;20.42;100.00
65173;BME280;69059;52.218;5.172;2023-06-19T02:22:02;100485.41;;;20.42;100.00
65173;BME280;69059;52.218;5.172;2023-06-19T02:24:29;100480.78;;;20.32;100.00
65173;BME280;69059;52.218;5.172;2023-06-19T02:26:57;100464.06;;;20.26;100.00
65173;BME280;69059;52.218;5.172;2023-06-19T02:29:26;100460.94;;;20.34;100.00
65173;BME280;69059;52.218;5.172;2023-06-19T02:31:56;100457.50;;;20.34;100.00
65173;BME280;69059;52.218;5.172;2023-06-19T02:34:23;100452.34;;;20.22;100.00
65173;BME280;69059;52.218;5.172;2023-06-19T02:36:51;100438.53;;;20.20;100.00
65173;BME280;69059;52.218;5.172;2023-06-19T02:39:20;100442.31;;;20.29;100.00
65173;BME280;69059;52.218;5.172;2023-06-19T02:41:49;100437.78;;;20.25;100.00
65173;BME280;69059;52.218;5.172;2023-06-19T02:44:17;100426.03;;;20.16;100.00
65173;BME280;69059;52.218;5.172;2023-06-19T02:46:46;100414.38;;;20.17;100.00
65173;BME280;69059;52.218;5.172;2023-06-19T02:49:13;100412.28;;;20.19;100.00
65173;BME280;69059;52.218;5.172;2023-06-19T02:51:41;100403.53;;;20.18;100.00
65173;BME280;69059;52.218;5.172;2023-06-19T02:54:09;100393.69;;;20.14;100.00
65173;BME280;69059;52.218;5.172;2023-06-19T02:56:37;100397.22;;;20.24;100.00
65173;BME280;69059;52.218;5.172;2023-06-19T02:59:05;100404.66;;;20.27;100.00
65173;BME280;69059;52.218;5.172;2023-06-19T03:01:33;100377.94;;;20.02;100.00
65173;BME280;69059;52.218;5.172;2023-06-19T03:04:03;100388.75;;;20.27;100.00
65173;BME280;69059;52.218;5.172;2023-06-19T03:06:31;100396.72;;;20.27;100.00
65173;BME280;69059;52.218;5.172;2023-06-19T03:08:59;100396.94;;;20.21;100.00
65173;BME280;69059;52.218;5.172;2023-06-19T03:11:27;100399.88;;;20.24;100.00
65173;BME280;69059;52.218;5.172;2023-06-19T03:13:56;100369.38;;;20.22;100.00
65173;BME280;69059;52.218;5.172;2023-06-19T03:16:23;100335.84;;;20.06;100.00
65173;BME280;69059;52.218;5.172;2023-06-19T03:18:51;100317.84;;;20.08;100.00
65173;BME280;69059;52.218;5.172;2023-06-19T03:21:20;100292.72;;;20.15;100.00
65173;BME280;69059;52.218;5.172;2023-06-19T03:23:48;100286.38;;;20.16;100.00
65173;BME280;69059;52.218;5.172;2023-06-19T03:26:18;100242.66;;;20.14;100.00
65173;BME280;69059;52.218;5.172;2023-06-19T03:28:46;100195.44;;;20.11;100.00
65173;BME280;69059;52.218;5.172;2023-06-19T03:31:15;100120.13;;;20.01;100.00
65173;BME280;69059;52.218;5.172;2023-06-19T03:33:42;99990.81;;;19.88;100.00
65173;BME280;69059;52.218;5.172;2023-06-19T03:36:10;99878.78;;;19.88;100.00
65173;BME280;69059;52.218;5.172;2023-06-19T03:38:39;99784.47;;;19.92;100.00
65173;BME280;69059;52.218;5.172;2023-06-19T03:41:07;99651.00;;;19.83;100.00
65173;BME280;69059;52.218;5.172;2023-06-19T03:43:35;99538.41;;;19.95;100.00
65173;BME280;69059;52.218;5.172;2023-06-19T03:46:04;99514.56;;;19.90;100.00
65173;BME280;69059;52.218;5.172;2023-06-19T03:48:31;99518.53;;;19.93;100.00
65173;BME280;69059;52.218;5.172;2023-06-19T03:50:59;99514.28;;;19.92;100.00
65173;BME280;69059;52.218;5.172;2023-06-19T03:53:27;99359.41;;;19.84;100.00
65173;BME280;69059;52.218;5.172;2023-06-19T03:55:56;99198.16;;;19.83;100.00
65173;BME280;69059;52.218;5.172;2023-06-19T03:58:24;98937.34;;;19.61;100.00
65173;BME280;69059;52.218;5.172;2023-06-19T04:00:52;98720.28;;;19.61;100.00
65173;BME280;69059;52.218;5.172;2023-06-19T04:03:19;98600.28;;;19.66;100.00
65173;BME280;69059;52.218;5.172;2023-06-19T04:05:47;98523.44;;;19.57;100.00
65173;BME280;69059;52.218;5.172;2023-06-19T04:08:15;98446.69;;;19.57;100.00
65173;BME280;69059;52.218;5.172;2023-06-19T04:10:43;98397.47;;;19.70;100.00
65173;BME280;69059;52.218;5.172;2023-06-19T04:13:12;98411.69;;;19.60;100.00
65173;BME280;69059;52.218;5.172;2023-06-19T04:15:40;98424.22;;;19.55;100.00
65173;BME280;69059;52.218;5.172;2023-06-19T04:18:11;98458.94;;;19.53;100.00
65173;BME280;69059;52.218;5.172;2023-06-19T04:20:39;98470.47;;;19.44;100.00
65173;BME280;69059;52.218;5.172;2023-06-19T04:23:06;98458.34;;;19.56;100.00
65173;BME280;69059;52.218;5.172;2023-06-19T04:25:34;98491.88;;;19.61;100.00
65173;BME280;69059;52.218;5.172;2023-06-19T04:28:02;98516.00;;;19.59;100.00
65173;BME280;69059;52.218;5.172;2023-06-19T04:30:32;98543.53;;;19.58;100.00
65173;BME280;69059;52.218;5.172;2023-06-19T04:32:59;98578.47;;;19.74;100.00
65173;BME280;69059;52.218;5.172;2023-06-19T04:35:27;98592.75;;;19.59;100.00
65173;BME280;69059;52.218;5.172;2023-06-19T04:37:55;98611.84;;;19.56;100.00
65173;BME280;69059;52.218;5.172;2023-06-19T04:40:27;98627.56;;;19.48;100.00
65173;BME280;69059;52.218;5.172;2023-06-19T04:42:55;98644.88;;;19.59;100.00
65173;BME280;69059;52.218;5.172;2023-06-19T04:45:22;98683.41;;;19.65;100.00
65173;BME280;69059;52.218;5.172;2023-06-19T04:47:52;98727.00;;;19.54;100.00
65173;BME280;69059;52.218;5.172;2023-06-19T04:50:20;98742.31;;;19.57;100.00
65173;BME280;69059;52.218;5.172;2023-06-19T04:52:49;98749.75;;;19.55;100.00
65173;BME280;69059;52.218;5.172;2023-06-19T04:55:18;98749.47;;;19.56;100.00
65173;BME280;69059;52.218;5.172;2023-06-19T04:57:46;98746.16;;;19.46;100.00
65173;BME280;69059;52.218;5.172;2023-06-19T05:00:15;98747.72;;;19.47;100.00
65173;BME280;69059;52.218;5.172;2023-06-19T05:02:45;98757.31;;;19.43;100.00
65173;BME280;69059;52.218;5.172;2023-06-19T05:05:15;98776.75;;;19.33;100.00
65173;BME280;69059;52.218;5.172;2023-06-19T05:07:45;98779.91;;;19.35;100.00
65173;BME280;69059;52.218;5.172;2023-06-19T05:10:13;98795.00;;;19.35;100.00
65173;BME280;69059;52.218;5.172;2023-06-19T05:12:41;98828.59;;;19.34;100.00
65173;BME280;69059;52.218;5.172;2023-06-19T05:15:09;98822.66;;;19.23;100.00
65173;BME280;69059;52.218;5.172;2023-06-19T05:17:37;98874.94;;;19.31;100.00
65173;BME280;69059;52.218;5.172;2023-06-19T05:20:06;98876.94;;;19.40;100.00
65173;BME280;69059;52.218;5.172;2023-06-19T05:22:36;98906.91;;;19.35;100.00
65173;BME280;69059;52.218;5.172;2023-06-19T05:25:05;98913.06;;;19.25;100.00
65173;BME280;69059;52.218;5.172;2023-06-19T05:27:33;98913.41;;;19.19;100.00
65173;BME280;69059;52.218;5.172;2023-06-19T05:30:00;98937.88;;;19.06;100.00
65173;BME280;69059;52.218;5.172;2023-06-19T05:32:28;98913.72;;;18.88;100.00
65173;BME280;69059;52.218;5.172;2023-06-19T05:34:56;98923.34;;;19.03;100.00
65173;BME280;69059;52.218;5.172;2023-06-19T05:37:24;98916.31;;;18.93;100.00
65173;BME280;69059;52.218;5.172;2023-06-19T05:39:54;98930.56;;;18.98;100.00
65173;BME280;69059;52.218;5.172;2023-06-19T05:42:23;98952.78;;;18.96;100.00
65173;BME280;69059;52.218;5.172;2023-06-19T05:44:51;98967.72;;;19.11;100.00
65173;BME280;69059;52.218;5.172;2023-06-19T05:47:19;98994.81;;;18.98;100.00
65173;BME280;69059;52.218;5.172;2023-06-19T05:49:47;99031.25;;;19.01;100.00
65173;BME280;69059;52.218;5.172;2023-06-19T05:52:15;99047.88;;;19.12;100.00
65173;BME280;69059;52.218;5.172;2023-06-19T05:54:42;99096.56;;;19.06;100.00
65173;BME280;69059;52.218;5.172;2023-06-19T05:57:11;99106.78;;;19.17;100.00
65173;BME280;69059;52.218;5.172;2023-06-19T05:59:41;99131.50;;;19.03;100.00
65173;BME280;69059;52.218;5.172;2023-06-19T06:02:09;99145.06;;;18.91;100.00
65173;BME280;69059;52.218;5.172;2023-06-19T06:04:37;99136.19;;;18.72;100.00
65173;BME280;69059;52.218;5.172;2023-06-19T06:07:05;99139.50;;;18.87;100.00
65173;BME280;69059;52.218;5.172;2023-06-19T06:09:33;99146.09;;;18.90;100.00
65173;BME280;69059;52.218;5.172;2023-06-19T06:12:01;99153.44;;;19.03;100.00
65173;BME280;69059;52.218;5.172;2023-06-19T06:14:30;99163.53;;;18.96;100.00
65173;BME280;69059;52.218;5.172;2023-06-19T06:16:57;99164.59;;;18.95;100.00
65173;BME280;69059;52.218;5.172;2023-06-19T06:19:26;99172.72;;;19.09;100.00
65173;BME280;69059;52.218;5.172;2023-06-19T06:21:54;99171.75;;;18.94;100.00
65173;BME280;69059;52.218;5.172;2023-06-19T06:24:22;99171.47;;;18.96;100.00
65173;BME280;69059;52.218;5.172;2023-06-19T06:26:49;99193.91;;;19.04;100.00
65173;BME280;69059;52.218;5.172;2023-06-19T06:29:18;99200.53;;;19.01;100.00
65173;BME280;69059;52.218;5.172;2023-06-19T06:31:47;99216.38;;;19.06;100.00
65173;BME280;69059;52.218;5.172;2023-06-19T06:34:15;99221.41;;;19.03;100.00
65173;BME280;69059;52.218;5.172;2023-06-19T06:36:43;99223.22;;;19.12;100.00
65173;BME280;69059;52.218;5.172;2023-06-19T06:39:30;99226.94;;;19.11;100.00
65173;BME280;69059;52.218;5.172;2023-06-19T06:41:58;99249.06;;;19.25;100.00
65173;BME280;69059;52.218;5.172;2023-06-19T06:44:26;99268.16;;;19.22;100.00
65173;BME280;69059;52.218;5.172;2023-06-19T06:46:55;99294.25;;;19.39;100.00
65173;BME280;69059;52.218;5.172;2023-06-19T06:49:23;99308.56;;;19.33;100.00
65173;BME280;69059;52.218;5.172;2023-06-19T06:51:50;99349.25;;;19.52;100.00
65173;BME280;69059;52.218;5.172;2023-06-19T06:54:21;99332.91;;;19.35;100.00
65173;BME280;69059;52.218;5.172;2023-06-19T06:56:49;99356.41;;;19.42;100.00
65173;BME280;69059;52.218;5.172;2023-06-19T06:59:19;99434.72;;;19.63;100.00
65173;BME280;69059;52.218;5.172;2023-06-19T07:01:46;99497.47;;;19.57;100.00
65173;BME280;69059;52.218;5.172;2023-06-19T07:04:15;99530.31;;;19.56;100.00
65173;BME280;69059;52.218;5.172;2023-06-19T07:06:43;99554.63;;;19.38;100.00
65173;BME280;69059;52.218;5.172;2023-06-19T07:09:11;99577.69;;;19.48;100.00
65173;BME280;69059;52.218;5.172;2023-06-19T07:11:39;99595.41;;;19.52;100.00
65173;BME280;69059;52.218;5.172;2023-06-19T07:14:06;99585.09;;;19.36;100.00
65173;BME280;69059;52.218;5.172;2023-06-19T07:16:34;99611.53;;;19.25;100.00
65173;BME280;69059;52.218;5.172;2023-06-19T07:19:02;99595.41;;;19.32;100.00
65173;BME280;69059;52.218;5.172;2023-06-19T07:21:31;99635.38;;;19.36;100.00
65173;BME280;69059;52.218;5.172;2023-06-19T07:23:59;99670.03;;;19.44;100.00
65173;BME280;69059;52.218;5.172;2023-06-19T07:26:27;99720.09;;;19.51;100.00
65173;BME280;69059;52.218;5.172;2023-06-19T07:28:55;99735.75;;;19.62;100.00
65173;BME280;69059;52.218;5.172;2023-06-19T07:31:22;99769.59;;;19.55;100.00
65173;BME280;69059;52.218;5.172;2023-06-19T07:33:50;99766.19;;;19.70;100.00
65173;BME280;69059;52.218;5.172;2023-06-19T07:36:18;99821.28;;;19.83;100.00
65173;BME280;69059;52.218;5.172;2023-06-19T07:38:47;99857.59;;;19.88;100.00
65173;BME280;69059;52.218;5.172;2023-06-19T07:41:15;99879.84;;;20.02;100.00
65173;BME280;69059;52.218;5.172;2023-06-19T07:43:43;99940.56;;;20.34;100.00
65173;BME280;69059;52.218;5.172;2023-06-19T07:46:11;99976.34;;;20.26;100.00
65173;BME280;69059;52.218;5.172;2023-06-19T07:48:38;99988.47;;;20.02;100.00
65173;BME280;69059;52.218;5.172;2023-06-19T07:51:06;100000.41;;;20.04;100.00
65173;BME280;69059;52.218;5.172;2023-06-19T07:53:34;100026.56;;;19.86;100.00
65173;BME280;69059;52.218;5.172;2023-06-19T07:56:03;100017.06;;;19.95;100.00
65173;BME280;69059;52.218;5.172;2023-06-19T07:58:31;100037.22;;;20.01;100.00
65173;BME280;69059;52.218;5.172;2023-06-19T08:00:59;100017.13;;;20.20;100.00
65173;BME280;69059;52.218;5.172;2023-06-19T08:03:26;100078.75;;;20.48;100.00
65173;BME280;69059;52.218;5.172;2023-06-19T08:05:54;100140.25;;;20.45;100.00
65173;BME280;69059;52.218;5.172;2023-06-19T08:08:22;100193.97;;;20.30;100.00
65173;BME280;69059;52.218;5.172;2023-06-19T08:10:50;100227.31;;;20.63;100.00
65173;BME280;69059;52.218;5.172;2023-06-19T08:13:19;100275.28;;;20.61;100.00
65173;BME280;69059;52.218;5.172;2023-06-19T08:15:47;100316.81;;;20.46;100.00
65173;BME280;69059;52.218;5.172;2023-06-19T08:18:14;100324.88;;;20.29;100.00
65173;BME280;69059;52.218;5.172;2023-06-19T08:20:42;100333.63;;;20.61;100.00
65173;BME280;69059;52.218;5.172;2023-06-19T08:23:10;100331.34;;;20.75;100.00
65173;BME280;69059;52.218;5.172;2023-06-19T08:25:38;100340.34;;;20.79;100.00
65173;BME280;69059;52.218;5.172;2023-06-19T08:28:05;100351.84;;;20.95;100.00
65173;BME280;69059;52.218;5.172;2023-06-19T08:30:35;100433.81;;;21.33;100.00
65173;BME280;69059;52.218;5.172;2023-06-19T08:33:02;100422.94;;;20.93;100.00
65173;BME280;69059;52.218;5.172;2023-06-19T08:35:30;100423.63;;;20.73;100.00
65173;BME280;69059;52.218;5.172;2023-06-19T08:37:58;100398.25;;;20.87;100.00
65173;BME280;69059;52.218;5.172;2023-06-19T08:40:26;100420.53;;;20.86;100.00
65173;BME280;69059;52.218;5.172;2023-06-19T08:42:54;100450.47;;;20.82;100.00
65173;BME280;69059;52.218;5.172;2023-06-19T08:45:22;100498.03;;;20.93;100.00
65173;BME280;69059;52.218;5.172;2023-06-19T08:47:57;100507.53;;;20.84;100.00
65173;BME280;69059;52.218;5.172;2023-06-19T08:50:26;100510.09;;;21.06;100.00
65173;BME280;69059;52.218;5.172;2023-06-19T08:52:54;100536.41;;;21.13;100.00
65173;BME280;69059;52.218;5.172;2023-06-19T08:55:22;100556.28;;;21.42;100.00
65173;BME280;69059;52.218;5.172;2023-06-19T08:57:50;100561.22;;;21.65;100.00
65173;BME280;69059;52.218;5.172;2023-06-19T09:00:23;100596.81;;;21.64;100.00
65173;BME280;69059;52.218;5.172;2023-06-19T09:02:59;100635.94;;;21.79;100.00
65173;BME280;69059;52.218;5.172;2023-06-19T09:05:41;100654.22;;;21.70;100.00
65173;BME280;69059;52.218;5.172;2023-06-19T09:08:17;100637.09;;;21.51;100.00
65173;BME280;69059;52.218;5.172;2023-06-19T09:10:57;100594.41;;;21.26;100.00
65173;BME280;69059;52.218;5.172;2023-06-19T09:13:25;100555.03;;;21.18;100.00
65173;BME280;69059;52.218;5.172;2023-06-19T09:15:58;100556.50;;;21.03;100.00
65173;BME280;69059;52.218;5.172;2023-06-19T09:18:30;100556.72;;;21.29;100.00
65173;BME280;69059;52.218;5.172;2023-06-19T09:20:59;100556.31;;;21.15;100.00
65173;BME280;69059;52.218;5.172;2023-06-19T09:23:26;100548.44;;;21.20;100.00
65173;BME280;69059;52.218;5.172;2023-06-19T09:25:57;100548.19;;;21.22;100.00
65173;BME280;69059;52.218;5.172;2023-06-19T09:28:27;100545.38;;;21.38;100.00
65173;BME280;69059;52.218;5.172;2023-06-19T09:30:56;100583.06;;;21.83;100.00
65173;BME280;69059;52.218;5.172;2023-06-19T09:33:26;100637.78;;;21.73;100.00
65173;BME280;69059;52.218;5.172;2023-06-19T09:35:56;100634.00;;;21.64;100.00
65173;BME280;69059;52.218;5.172;2023-06-19T09:38:26;100611.34;;;21.57;100.00
65173;BME280;69059;52.218;5.172;2023-06-19T09:40:56;100629.25;;;21.71;100.00
65173;BME280;69059;52.218;5.172;2023-06-19T09:43:25;100659.69;;;21.91;100.00
65173;BME280;69059;52.218;5.172;2023-06-19T09:45:57;100678.31;;;21.59;100.00
65173;BME280;69059;52.218;5.172;2023-06-19T09:48:27;100678.69;;;21.72;100.00
65173;BME280;69059;52.218;5.172;2023-06-19T09:51:06;100657.81;;;21.54;100.00
65173;BME280;69059;52.218;5.172;2023-06-19T09:53:36;100676.81;;;21.73;100.00
65173;BME280;69059;52.218;5.172;2023-06-19T09:56:04;100688.72;;;21.65;100.00
65173;BME280;69059;52.218;5.172;2023-06-19T09:58:32;100699.47;;;21.49;100.00
65173;BME280;69059;52.218;5.172;2023-06-19T10:01:00;100726.44;;;21.62;100.00
65173;BME280;69059;52.218;5.172;2023-06-19T10:03:31;100716.38;;;22.01;100.00
65173;BME280;69059;52.218;5.172;2023-06-19T10:06:02;100756.13;;;21.91;100.00
65173;BME280;69059;52.218;5.172;2023-06-19T10:08:31;100765.69;;;21.92;100.00
65173;BME280;69059;52.218;5.172;2023-06-19T10:10:59;100757.56;;;21.99;100.00
65173;BME280;69059;52.218;5.172;2023-06-19T10:13:34;100784.44;;;22.02;100.00
65173;BME280;69059;52.218;5.172;2023-06-19T10:16:03;100787.97;;;22.18;100.00
65173;BME280;69059;52.218;5.172;2023-06-19T10:18:31;100832.19;;;22.66;100.00
65173;BME280;69059;52.218;5.172;2023-06-19T10:21:00;100848.41;;;22.65;100.00
65173;BME280;69059;52.218;5.172;2023-06-19T10:23:28;100883.50;;;23.04;100.00
65173;BME280;69059;52.218;5.172;2023-06-19T10:25:57;100904.72;;;22.51;100.00
65173;BME280;69059;52.218;5.172;2023-06-19T10:28:30;100910.81;;;22.79;100.00
65173;BME280;69059;52.218;5.172;2023-06-19T10:30:59;100923.41;;;22.62;100.00
65173;BME280;69059;52.218;5.172;2023-06-19T10:33:28;100916.94;;;22.47;100.00
65173;BME280;69059;52.218;5.172;2023-06-19T10:35:58;100915.81;;;22.43;100.00
65173;BME280;69059;52.218;5.172;2023-06-19T10:38:28;100904.84;;;22.35;100.00
65173;BME280;69059;52.218;5.172;2023-06-19T10:40:56;100891.19;;;22.58;100.00
65173;BME280;69059;52.218;5.172;2023-06-19T10:43:24;100913.22;;;22.85;100.00
65173;BME280;69059;52.218;5.172;2023-06-19T10:45:57;100949.97;;;23.36;100.00
65173;BME280;69059;52.218;5.172;2023-06-19T10:48:25;100972.53;;;23.23;100.00
65173;BME280;69059;52.218;5.172;2023-06-19T10:50:56;100971.41;;;23.61;100.00
65173;BME280;69059;52.218;5.172;2023-06-19T10:53:25;100994.09;;;23.69;100.00
65173;BME280;69059;52.218;5.172;2023-06-19T10:55:58;101005.09;;;23.87;100.00
65173;BME280;69059;52.218;5.172;2023-06-19T10:58:27;101012.41;;;24.22;100.00
65173;BME280;69059;52.218;5.172;2023-06-19T11:00:55;101024.78;;;23.81;100.00
65173;BME280;69059;52.218;5.172;2023-06-19T11:03:23;101019.44;;;23.76;100.00
65173;BME280;69059;52.218;5.172;2023-06-19T11:05:51;101010.41;;;23.87;100.00
65173;BME280;69059;52.218;5.172;2023-06-19T11:08:19;101026.84;;;24.52;100.00
65173;BME280;69059;52.218;5.172;2023-06-19T11:10:48;101036.19;;;24.39;100.00
65173;BME280;69059;52.218;5.172;2023-06-19T11:13:17;101069.78;;;24.35;100.00
65173;BME280;69059;52.218;5.172;2023-06-19T11:15:47;101054.06;;;24.44;100.00
65173;BME280;69059;52.218;5.172;2023-06-19T11:18:16;101061.25;;;24.38;100.00
65173;BME280;69059;52.218;5.172;2023-06-19T11:20:45;101052.97;;;24.24;100.00
65173;BME280;69059;52.218;5.172;2023-06-19T11:23:14;101055.50;;;23.94;100.00
65173;BME280;69059;52.218;5.172;2023-06-19T11:25:42;101053.97;;;24.13;100.00
65173;BME280;69059;52.218;5.172;2023-06-19T11:28:11;101055.66;;;24.50;100.00
65173;BME280;69059;52.218;5.172;2023-06-19T11:30:42;101071.97;;;24.53;100.00
65173;BME280;69059;52.218;5.172;2023-06-19T11:33:17;101080.50;;;24.71;100.00
65173;BME280;69059;52.218;5.172;2023-06-19T11:35:49;101083.66;;;24.37;100.00
65173;BME280;69059;52.218;5.172;2023-06-19T11:38:18;101087.78;;;23.98;100.00
65173;BME280;69059;52.218;5.172;2023-06-19T11:40:46;101071.19;;;23.80;100.00
65173;BME280;69059;52.218;5.172;2023-06-19T11:43:23;101094.19;;;24.07;100.00
65173;BME280;69059;52.218;5.172;2023-06-19T11:45:52;101086.03;;;24.23;100.00
65173;BME280;69059;52.218;5.172;2023-06-19T11:48:23;101101.03;;;24.40;100.00
65173;BME280;69059;52.218;5.172;2023-06-19T11:50:51;101102.34;;;24.37;100.00
65173;BME280;69059;52.218;5.172;2023-06-19T11:53:21;101121.69;;;25.05;100.00
65173;BME280;69059;52.218;5.172;2023-06-19T11:55:49;101127.56;;;25.22;100.00
65173;BME280;69059;52.218;5.172;2023-06-19T11:58:17;101112.34;;;25.13;100.00
65173;BME280;69059;52.218;5.172;2023-06-19T12:00:47;101141.44;;;25.40;100.00
65173;BME280;69059;52.218;5.172;2023-06-19T12:03:16;101132.66;;;25.19;100.00
65173;BME280;69059;52.218;5.172;2023-06-19T12:05:44;101125.38;;;24.89;100.00
65173;BME280;69059;52.218;5.172;2023-06-19T12:08:12;101139.31;;;25.26;100.00
65173;BME280;69059;52.218;5.172;2023-06-19T12:10:40;101139.81;;;25.49;100.00
65173;BME280;69059;52.218;5.172;2023-06-19T12:13:07;101148.91;;;25.53;100.00
65173;BME280;69059;52.218;5.172;2023-06-19T12:15:35;101163.34;;;25.57;100.00
65173;BME280;69059;52.218;5.172;2023-06-19T12:18:03;101149.47;;;25.45;100.00
65173;BME280;69059;52.218;5.172;2023-06-19T12:20:35;101154.63;;;26.21;100.00
65173;BME280;69059;52.218;5.172;2023-06-19T12:23:02;101152.75;;;26.21;100.00
65173;BME280;69059;52.218;5.172;2023-06-19T12:25:30;101167.88;;;26.51;100.00
65173;BME280;69059;52.218;5.172;2023-06-19T12:27:58;101176.84;;;26.75;100.00
65173;BME280;69059;52.218;5.172;2023-06-19T12:30:26;101180.44;;;27.05;100.00
65173;BME280;69059;52.218;5.172;2023-06-19T12:32:53;101163.78;;;27.42;100.00
65173;BME280;69059;52.218;5.172;2023-06-19T12:35:21;101200.19;;;27.14;100.00
65173;BME280;69059;52.218;5.172;2023-06-19T12:37:50;101192.78;;;26.57;100.00
65173;BME280;69059;52.218;5.172;2023-06-19T12:40:19;101189.91;;;26.87;100.00
65173;BME280;69059;52.218;5.172;2023-06-19T12:42:46;101188.09;;;28.03;100.00
65173;BME280;69059;52.218;5.172;2023-06-19T12:45:16;101209.41;;;26.98;100.00
65173;BME280;69059;52.218;5.172;2023-06-19T12:47:44;101200.94;;;27.59;100.00
65173;BME280;69059;52.218;5.172;2023-06-19T12:50:12;101196.03;;;28.13;100.00